• Join FlightAware (Why Join?)
  • Login
  • US Flag 
07:50PM EDT


 

Airport Tracker/Info


-or-


 

Live Flight TrackerFlight Track Log ✈ EJA364 ✈ 23-Apr-2013 ✈ KOTH - KLAS

Flight Track Log - Related Links

Times and Time Zones

All times are in EDT time to prevent confusion due to time zone crossing. See the EJA364 flight status page for this flight to view local times or setup timezone preferences in your user account.

Time Position Orientation Groundspeed Altitude Reporting Facility
EDT Latitude Longitude Course Direction KTS MPH feet Rate Location/Type
08:27PM 43.4531 -124.2292 119° Southeast 225 259 3,100  Level Seattle Center
08:28PM 43.4197 -124.1444 118° Southeast 258 297 7,600 4,080 Climbing Seattle Center
08:29PM 43.3736 -124.0539 125° Southeast 285 328 11,400 3,300 Climbing Seattle Center
08:30PM 42.8193 -123.0386 124° Southeast  Level FlightAware Approximate
08:31PM 42.7523 -122.9066 126° Southeast  Level FlightAware Approximate
08:31PM 43.3144 -123.9339 124° Southeast 357 411 14,400  Level Seattle Center
08:32PM 42.6828 -122.7773 126° Southeast  Level FlightAware Approximate
08:32PM 43.2514 -123.8108 125° Southeast 389 448 17,400  Level Seattle Center
08:33PM 42.6202 -122.6421 119° Southeast  Level FlightAware Approximate
08:33PM 43.1853 -123.6833 125° Southeast 404 465 20,200  Level Seattle Center
08:34PM 43.1053 -123.5236 124° Southeast 419 482 23,200 2,160 Climbing Seattle Center
08:35PM 43.0317 -123.3861 126° Southeast 438 504 24,600 1,320 Climbing Seattle Center
08:36PM 42.9356 -123.2481 134° Southeast 486 559 26,000 1,320 Climbing Seattle Center
08:37PM 42.8317 -123.1203 138° Southeast 500 575 27,400 1,560 Climbing Seattle Center
08:38PM 42.7225 -122.9831 137° Southeast 510 587 29,200 1,680 Climbing Seattle Center
08:39PM 42.6175 -122.8572 139° Southeast 506 582 30,900 1,500 Climbing Seattle Center
08:40PM 42.5131 -122.7306 138° Southeast 501 577 32,300 1,320 Climbing Seattle Center
08:41PM 42.4081 -122.6036 138° Southeast 505 581 33,600 1,260 Climbing Seattle Center
08:42PM 42.3022 -122.4786 139° Southeast 505 581 34,900 1,260 Climbing Seattle Center
08:43PM 42.1964 -122.3528 139° Southeast 508 585 36,200 1,200 Climbing Seattle Center
08:44PM 42.0922 -122.2300 139° Southeast 504 580 37,400 1,200 Climbing Seattle Center
08:45PM 41.9911 -122.1100 139° Southeast 500 575 38,700 780 Climbing Seattle Center
08:46PM 41.8681 -121.9664 139° Southeast 501 577 39,000 120 Climbing Seattle Center
08:47PM 41.7617 -121.8422 139° Southeast 511 588 39,000  Level Seattle Center
08:48PM 41.6547 -121.7181 139° Southeast 510 587 39,000  Level Seattle Center
08:49PM 41.5478 -121.5953 139° Southeast 509 586 39,000  Level Seattle Center
08:50PM 41.4414 -121.4719 139° Southeast 508 585 39,000  Level Seattle Center
08:51PM 41.3336 -121.3497 140° Southeast 511 588 39,000  Level Seattle Center
08:52PM 41.2269 -121.2250 139° Southeast 510 587 39,000  Level Seattle Center
08:53PM 41.1206 -121.1017 139° Southeast 508 585 39,000  Level Seattle Center
08:54PM 41.0131 -120.9803 140° Southeast 509 586 39,000  Level Seattle Center
08:55PM 40.9069 -120.8586 139° Southeast 506 582 39,000  Level Seattle Center
08:56PM 40.7989 -120.7386 140° Southeast 507 583 39,000  Level Seattle Center
08:57PM 40.6917 -120.6197 140° Southeast 506 582 39,000  Level Oakland Center
08:58PM 40.5836 -120.5008 140° Southeast 507 583 39,000  Level Oakland Center
08:59PM 40.4575 -120.3606 140° Southeast 505 581 39,000  Level Oakland Center
09:00PM 40.3492 -120.2403 140° Southeast 507 583 39,000  Level Seattle Center
09:01PM 40.2417 -120.1214 140° Southeast 507 583 39,000  Level Seattle Center
09:02PM 40.1339 -120.0053 141° Southeast 505 581 39,000  Level Oakland Center
09:03PM 40.0264 -119.8875 140° Southeast 505 581 39,000  Level Oakland Center
09:04PM 39.9169 -119.7697 140° Southeast 509 586 39,000  Level Oakland Center
09:05PM 39.8094 -119.6525 140° Southeast 505 581 39,000  Level Oakland Center
09:06PM 39.7028 -119.5369 140° Southeast 502 578 39,000  Level Oakland Center
09:07PM 39.5944 -119.4217 141° Southeast 503 579 39,000  Level Oakland Center
09:08PM 39.4653 -119.2842 141° Southeast 502 578 39,000  Level Oakland Center
09:09PM 39.3594 -119.1714 140° Southeast 498 573 39,000  Level Oakland Center
09:10PM 39.2458 -119.0522 141° Southeast 498 573 39,000  Level Oakland Center
09:11PM 39.1489 -118.9483 140° Southeast 495 570 39,000  Level Oakland Center
09:12PM 39.0425 -118.8386 141° Southeast 496 571 39,000 -660 Level Oakland Center
09:13PM 38.9375 -118.7278 141° Southeast 493 567 37,700 -1,320 Descending Oakland Center
09:14PM 38.8325 -118.6183 141° Southeast 490 564 36,400 -1,380 Descending Oakland Center
09:15PM 38.7006 -118.4828 141° Southeast 506 582 35,000 -720 Descending Oakland Center
09:16PM 38.5889 -118.3672 141° Southeast 514 592 35,000  Level Oakland Center
09:17PM 38.4767 -118.2522 141° Southeast 517 595 35,000  Level Oakland Center
09:18PM 38.3644 -118.1375 141° Southeast 517 595 35,000  Level Oakland Center
09:19PM 38.2644 -118.0344 141° Southeast 513 590 35,000  Level Oakland Center
09:20PM 38.1539 -117.9225 141° Southeast 510 587 35,000 -480 Level Oakland Center
09:21PM 38.0222 -117.7897 142° Southeast 508 585 34,100 -960 Descending Oakland Center
09:22PM 37.9086 -117.6864 144° Southeast 508 585 33,100 -600 Descending Oakland Center
09:23PM 37.7931 -117.5889 146° Southeast 504 580 33,000 -60 Descending Oakland Center
09:24PM 37.6772 -117.4886 146° Southeast 507 583 33,000  Level Oakland Center
09:25PM 37.5614 -117.3889 146° Southeast 507 583 33,000  Level Oakland Center
09:26PM 37.4442 -117.2908 146° Southeast 507 583 33,000  Level Oakland Center
09:27PM 37.3275 -117.1925 146° Southeast 507 583 33,000  Level Oakland Center
09:29PM 37.2108 -117.0942 146° Southeast 507 583 33,000 -420 Level Oakland Center
09:29PM 37.1642 -117.0536 145° Southeast 506 582 32,500 -1,980 Descending Los Angeles Center
09:30PM 37.0731 -116.9767 146° Southeast 497 572 31,000 -1,920 Descending Oakland Center
09:31PM 36.9597 -116.8828 146° Southeast 489 563 29,100 -1,740 Descending Oakland Center
09:31PM 36.9361 -116.8611 144° Southeast 497 572 28,800 -1,800 Descending Los Angeles Center
09:32PM 36.8219 -116.7656 146° Southeast 495 570 26,800 -1,920 Descending Los Angeles Center
09:33PM 36.7297 -116.6439 133° Southeast 484 557 24,900 -1,860 Descending Los Angeles Center
09:34PM 36.6433 -116.5214 131° Southeast 474 545 23,000 -1,800 Descending Los Angeles Center
09:35PM 36.5611 -116.4042 131° Southeast 454 522 21,300 -1,020 Descending Los Angeles Center
09:36PM 36.4736 -116.2817 132° Southeast 450 518 21,000 -360 Descending Los Angeles Center
09:37PM 36.3792 -116.1478 131° Southeast 459 528 20,600 -1,260 Descending Los Angeles Center
09:38PM 36.2844 -116.0239 133° Southeast 426 490 18,300 -2,160 Descending Los Angeles Center
09:39PM 36.2208 -115.9264 129° Southeast 399 459 16,200 -1,200 Descending Los Angeles Center
09:40PM 36.1775 -115.8228 117° Southeast 337 388 16,000 -360 Descending Los Angeles Center
09:41PM 36.1378 -115.7044 113° Southeast 347 399 15,500 -1,260 Descending Los Angeles Center
09:42PM 36.1033 -115.6000 112° Southeast 330 380 13,500 -1,920 Descending Los Angeles Center
09:43PM 36.1086 -115.5086 86° East 286 329 11,600 -1,500 Descending Los Angeles Center
09:44PM 36.1183 -115.3939 84° East 258 297 10,300 -1,200 Descending Los Angeles Center
09:45PM 36.1269 -115.3031 83° East 264 304 9,000 -720 Descending Los Angeles Center
09:46PM 36.1367 -115.2347 80° East 238 274 9,000  Level Los Angeles Center
09:47PM 36.1381 -115.1558 89° East 215 247 9,000  Level Los Angeles Center
09:48PM 36.1378 -115.0944 90° East 213 245 9,000 -480 Level Los Angeles Center
09:49PM 36.0897 -115.0792 166° South 207 238 8,100 -540 Descending Los Angeles Center
09:50PM 36.0372 -115.0986 197° South 203 234 8,000 -540 Descending Los Angeles Center
09:51PM 35.9797 -115.1228 199° South 207 238 7,100 -960 Descending Los Angeles Center
09:52PM 35.9369 -115.1567 213° Southwest 201 231 6,000 -1,200 Descending Los Angeles Center
09:53PM 35.9719 -115.2053 312° West 193 222 4,700 -1,320 Descending Los Angeles Center
09:54PM 36.0269 -115.2003 North 176 203 3,500 -1,080 Descending Los Angeles Center
09:55PM 36.0475 -115.1847 31° Northeast 143 165 3,000 -1,020 Descending Los Angeles Center
09:55PM 36.0611 -115.1786 20° North 135 155 2,600 -780 Descending Los Angeles Center
09:56PM 36.0797 -115.1667 27° Northeast 128 147 2,200 -720 Descending Los Angeles Center
09:58PM 36.0801 -115.1523 158° South  Level Estimated